createdAt,value
2023-08-17T00:01:59.153Z,11.27
2023-08-17T00:05:03.029Z,11.30
2023-08-17T00:08:07.090Z,11.35
2023-08-17T00:11:10.356Z,11.55
2023-08-17T00:14:13.976Z,11.65
2023-08-17T00:17:16.756Z,11.40
2023-08-17T00:20:20.445Z,10.98
2023-08-17T00:23:24.272Z,11.30
2023-08-17T00:26:27.304Z,12.32
2023-08-17T00:29:30.702Z,12.30
2023-08-17T00:32:33.633Z,11.43
2023-08-17T00:35:36.544Z,11.77
2023-08-17T00:38:39.449Z,12.27
2023-08-17T00:41:42.510Z,12.35
2023-08-17T00:44:46.077Z,12.27
2023-08-17T00:47:49.610Z,12.07
2023-08-17T00:50:54.653Z,12.23
2023-08-17T00:54:00.754Z,12.55
2023-08-17T00:57:07.878Z,12.05
2023-08-17T01:00:16.376Z,12.02
2023-08-17T01:03:24.615Z,12.73
2023-08-17T01:06:27.667Z,12.90
2023-08-17T01:09:33.669Z,12.13
2023-08-17T01:13:06.657Z,12.85
2023-08-17T01:16:16.153Z,12.75
2023-08-17T01:19:27.251Z,13.17
2023-08-17T01:22:32.117Z,12.80
2023-08-17T01:25:38.138Z,13.15
2023-08-17T01:28:40.951Z,13.25
2023-08-17T01:31:55.316Z,13.93
2023-08-17T01:35:08.837Z,13.17
2023-08-17T01:38:17.828Z,13.20
2023-08-17T01:41:23.786Z,13.35
2023-08-17T01:44:27.305Z,13.02
2023-08-17T01:47:31.831Z,12.77
2023-08-17T01:50:34.742Z,13.23
2023-08-17T01:53:37.748Z,13.25
2023-08-17T01:56:41.036Z,12.93
2023-08-17T01:59:45.021Z,12.95
2023-08-17T02:02:48.046Z,13.30
2023-08-17T02:05:51.633Z,12.80
2023-08-17T02:08:54.534Z,13.27
2023-08-17T02:12:00.049Z,13.90
2023-08-17T02:15:03.500Z,14.45
2023-08-17T02:18:06.461Z,14.30
2023-08-17T02:21:10.601Z,14.60
2023-08-17T02:24:16.235Z,14.65
2023-08-17T02:27:19.133Z,14.75
2023-08-17T02:30:22.152Z,14.45
2023-08-17T02:33:25.761Z,14.25
2023-08-17T02:36:28.854Z,14.87
2023-08-17T02:39:32.762Z,14.00
2023-08-17T02:42:35.767Z,14.95
2023-08-17T02:45:38.608Z,14.10
2023-08-17T02:48:42.307Z,13.95
2023-08-17T02:51:45.588Z,14.20
2023-08-17T02:54:48.641Z,14.35
2023-08-17T02:57:52.148Z,15.23
2023-08-17T03:00:55.592Z,14.75
2023-08-17T03:03:59.175Z,16.02
2023-08-17T03:07:02.895Z,14.90
2023-08-17T03:10:07.126Z,15.57
2023-08-17T03:13:10.077Z,15.15
2023-08-17T03:16:13.020Z,14.73
2023-08-17T03:19:16.740Z,15.32
2023-08-17T03:22:21.276Z,14.10
2023-08-17T03:25:25.012Z,14.65
2023-08-17T03:28:28.733Z,15.98
2023-08-17T03:31:32.718Z,15.00
2023-08-17T03:34:38.481Z,14.73
2023-08-17T03:37:43.727Z,14.37
2023-08-17T03:40:50.800Z,14.95
2023-08-17T03:43:54.725Z,14.63
2023-08-17T03:46:58.223Z,14.98
2023-08-17T03:50:01.084Z,14.55
2023-08-17T03:53:04.196Z,14.80
2023-08-17T03:56:07.187Z,14.68
2023-08-17T03:59:10.694Z,14.27
2023-08-17T04:02:14.254Z,14.38
2023-08-17T04:05:18.409Z,14.25
2023-08-17T04:08:21.384Z,14.53
2023-08-17T04:11:24.379Z,14.52
2023-08-17T04:14:28.272Z,14.15
2023-08-17T04:17:32.399Z,14.00
2023-08-17T04:20:36.258Z,13.95
2023-08-17T04:23:40.483Z,14.30
2023-08-17T04:26:43.410Z,13.48
2023-08-17T04:29:47.216Z,14.63
2023-08-17T04:32:53.834Z,14.10
2023-08-17T04:35:57.199Z,14.13
2023-08-17T04:39:00.401Z,14.73
2023-08-17T04:42:05.212Z,14.27
2023-08-17T04:45:11.034Z,14.95
2023-08-17T04:48:17.481Z,14.55
2023-08-17T04:51:23.231Z,14.05
2023-08-17T04:54:26.826Z,14.00
2023-08-17T04:57:30.580Z,14.73
2023-08-17T05:00:34.796Z,14.43
2023-08-17T05:03:39.424Z,14.45
2023-08-17T05:06:44.270Z,14.50
2023-08-17T05:09:48.436Z,14.10
2023-08-17T05:12:51.478Z,14.23
2023-08-17T05:15:55.440Z,15.05
2023-08-17T05:19:00.690Z,14.60
2023-08-17T05:22:05.409Z,17.02
2023-08-17T05:25:09.253Z,15.67
2023-08-17T05:28:18.023Z,15.80
2023-08-17T05:31:22.213Z,15.05
2023-08-17T05:34:27.422Z,15.52
2023-08-17T05:37:31.356Z,15.32
2023-08-17T05:40:34.483Z,16.00
2023-08-17T05:43:38.040Z,15.60
2023-08-17T05:46:42.077Z,15.85
2023-08-17T05:49:45.256Z,15.63
2023-08-17T05:52:48.190Z,14.35
2023-08-17T05:55:51.209Z,15.13
2023-08-17T05:58:54.201Z,13.68
2023-08-17T06:01:57.144Z,14.82
2023-08-17T06:05:00.808Z,14.23
2023-08-17T06:08:04.667Z,13.70
2023-08-17T06:11:08.119Z,13.73
2023-08-17T06:14:12.072Z,13.75
2023-08-17T06:17:15.815Z,13.75
2023-08-17T06:20:19.811Z,14.10
2023-08-17T06:23:26.536Z,14.70
2023-08-17T06:26:30.165Z,11.53
2023-08-17T06:29:33.107Z,12.07
2023-08-17T06:32:36.112Z,11.38
2023-08-17T06:35:38.931Z,11.57
2023-08-17T06:38:43.571Z,12.85
2023-08-17T06:41:47.338Z,12.83
2023-08-17T06:44:51.096Z,12.18
2023-08-17T06:47:55.132Z,12.32
2023-08-17T06:50:58.116Z,13.90
2023-08-17T06:54:01.249Z,13.20
2023-08-17T06:57:04.378Z,11.13
2023-08-17T07:00:08.973Z,12.68
2023-08-17T07:03:14.772Z,11.68
2023-08-17T07:06:19.105Z,10.60
2023-08-17T07:09:22.363Z,11.10
2023-08-17T07:12:25.540Z,10.93
2023-08-17T07:15:28.436Z,10.77
2023-08-17T07:18:32.065Z,10.48
2023-08-17T07:21:35.490Z,10.55
2023-08-17T07:24:39.405Z,10.27
2023-08-17T07:27:43.443Z,9.40
2023-08-17T07:30:46.636Z,10.07
2023-08-17T07:33:49.965Z,10.07
2023-08-17T07:36:52.961Z,10.00
2023-08-17T07:39:56.040Z,9.77
2023-08-17T07:42:58.979Z,10.27
2023-08-17T07:46:01.986Z,9.70
2023-08-17T07:49:06.063Z,10.15
2023-08-17T07:52:11.781Z,10.45
2023-08-17T07:55:15.690Z,9.80
2023-08-17T07:58:18.646Z,9.60
2023-08-17T08:01:22.176Z,9.40
2023-08-17T08:04:25.329Z,9.85
2023-08-17T08:07:28.503Z,9.98
2023-08-17T08:10:31.764Z,9.52
2023-08-17T08:13:34.696Z,9.57
2023-08-17T08:16:38.103Z,9.18
2023-08-17T08:19:40.968Z,9.25
2023-08-17T08:22:44.785Z,7.68
2023-08-17T08:25:48.720Z,7.72
2023-08-17T08:28:52.175Z,8.20
2023-08-17T08:31:55.092Z,6.70
2023-08-17T08:34:58.738Z,6.30
2023-08-17T08:38:02.223Z,5.95
2023-08-17T08:41:06.687Z,5.57
2023-08-17T08:44:09.809Z,5.30
2023-08-17T08:47:14.728Z,4.80
2023-08-17T08:50:23.374Z,4.47
2023-08-17T08:53:36.770Z,5.35
2023-08-17T08:59:50.935Z,5.50
2023-08-17T09:02:55.395Z,5.25
2023-08-17T09:05:59.239Z,6.00
2023-08-17T09:09:03.871Z,5.70
2023-08-17T09:12:11.015Z,6.03
2023-08-17T09:15:14.064Z,5.50
2023-08-17T09:18:18.857Z,6.05
2023-08-17T09:21:24.653Z,5.72
2023-08-17T09:24:38.258Z,5.50
2023-08-17T09:27:42.697Z,5.38
2023-08-17T09:31:05.022Z,5.27
2023-08-17T09:34:10.617Z,5.10
2023-08-17T09:37:14.795Z,5.78
2023-08-17T09:40:22.380Z,5.78
2023-08-17T09:43:30.282Z,5.90
2023-08-17T09:46:34.548Z,5.63
2023-08-17T09:49:37.549Z,5.85
2023-08-17T09:52:41.183Z,5.80
2023-08-17T09:55:45.911Z,6.40
2023-08-17T09:58:49.897Z,6.38
2023-08-17T10:01:57.026Z,6.10
2023-08-17T10:05:01.760Z,5.80
2023-08-17T10:08:08.009Z,5.85
2023-08-17T10:11:13.405Z,6.35
2023-08-17T10:14:23.325Z,6.60
2023-08-17T10:17:29.402Z,6.17
2023-08-17T10:20:35.640Z,6.50
2023-08-17T10:23:42.778Z,5.90
2023-08-17T10:26:47.487Z,6.28
2023-08-17T10:29:53.318Z,6.03
2023-08-17T10:32:57.921Z,5.40
2023-08-17T10:36:02.569Z,5.32
2023-08-17T10:39:27.005Z,5.50
2023-08-17T10:42:37.909Z,5.55
2023-08-17T10:45:41.460Z,6.65
2023-08-17T10:48:45.616Z,5.50
2023-08-17T10:52:03.672Z,5.45
2023-08-17T10:55:11.421Z,6.13
2023-08-17T10:58:16.175Z,5.32
2023-08-17T11:01:38.096Z,4.95
2023-08-17T11:04:42.002Z,5.30
2023-08-17T11:07:46.196Z,4.90
2023-08-17T11:11:08.230Z,5.20
2023-08-17T11:14:11.335Z,5.22
2023-08-17T11:17:14.906Z,5.28
2023-08-17T11:20:18.066Z,4.80
2023-08-17T11:23:26.058Z,5.00
2023-08-17T11:26:35.482Z,4.97
2023-08-17T11:32:53.788Z,5.45
2023-08-17T11:36:03.216Z,5.40
2023-08-17T11:39:10.462Z,5.80
2023-08-17T11:42:20.166Z,5.43
2023-08-17T11:45:27.593Z,5.53
2023-08-17T11:48:36.681Z,5.60
2023-08-17T11:51:43.131Z,5.53
2023-08-17T11:54:46.915Z,5.20
2023-08-17T11:57:55.950Z,6.20
2023-08-17T12:00:59.001Z,5.28
2023-08-17T12:04:06.043Z,5.50
2023-08-17T12:07:11.024Z,5.17
2023-08-17T12:10:14.533Z,5.68
2023-08-17T12:13:17.541Z,5.40
2023-08-17T12:16:22.289Z,5.50
2023-08-17T12:19:28.830Z,5.93
2023-08-17T12:22:31.832Z,5.57
2023-08-17T12:25:35.558Z,5.60
2023-08-17T12:28:41.521Z,5.95
2023-08-17T12:31:45.795Z,5.80
2023-08-17T12:34:49.688Z,6.10
2023-08-17T12:37:55.124Z,5.73
2023-08-17T12:41:00.002Z,5.72
2023-08-17T12:44:03.619Z,5.65
2023-08-17T12:47:07.588Z,5.90
2023-08-17T12:50:11.528Z,6.10
2023-08-17T12:53:14.433Z,5.97
2023-08-17T12:56:17.598Z,5.82
2023-08-17T12:59:21.069Z,6.28
2023-08-17T13:02:25.259Z,5.60
2023-08-17T13:05:30.177Z,6.40
2023-08-17T13:08:33.272Z,5.70
2023-08-17T13:11:37.141Z,6.40
2023-08-17T13:14:40.498Z,5.78
2023-08-17T13:17:47.337Z,6.00
2023-08-17T13:20:50.380Z,5.22
2023-08-17T13:23:53.279Z,6.10
2023-08-17T13:26:58.777Z,5.78
2023-08-17T13:30:02.820Z,6.72
2023-08-17T13:33:07.674Z,5.68
2023-08-17T13:36:10.694Z,6.10
2023-08-17T13:39:14.639Z,5.90
2023-08-17T13:42:18.561Z,5.80
2023-08-17T13:45:22.308Z,6.40
2023-08-17T13:48:26.075Z,6.82
2023-08-17T13:51:29.740Z,6.20
2023-08-17T13:54:33.626Z,5.60
2023-08-17T13:57:37.391Z,5.80
2023-08-17T14:00:40.374Z,6.70
2023-08-17T14:03:44.556Z,5.88
2023-08-17T14:06:48.205Z,6.15
2023-08-17T14:10:05.525Z,6.20
2023-08-17T14:13:11.002Z,6.22
2023-08-17T14:16:14.734Z,6.10
2023-08-17T14:19:18.570Z,6.30
2023-08-17T14:22:21.416Z,6.78
2023-08-17T14:25:24.483Z,7.10
2023-08-17T14:28:27.898Z,7.03
2023-08-17T14:31:31.624Z,7.78
2023-08-17T14:34:34.923Z,8.23
2023-08-17T14:37:38.721Z,8.18
2023-08-17T14:40:46.279Z,7.50
2023-08-17T14:43:51.379Z,7.47
2023-08-17T14:46:54.256Z,8.45
2023-08-17T14:49:57.322Z,9.27
2023-08-17T14:53:00.321Z,8.60
2023-08-17T14:56:03.338Z,8.20
2023-08-17T14:59:10.447Z,7.88
2023-08-17T15:02:15.183Z,11.70
2023-08-17T15:05:18.231Z,10.13
2023-08-17T15:08:21.358Z,9.05
2023-08-17T15:11:24.643Z,11.47
2023-08-17T15:14:27.754Z,11.13
2023-08-17T15:17:30.671Z,10.77
2023-08-17T15:20:33.736Z,10.80
2023-08-17T15:23:37.335Z,12.10
2023-08-17T15:26:40.853Z,10.90
2023-08-17T15:29:43.910Z,12.02
2023-08-17T15:32:47.972Z,11.38
2023-08-17T15:35:51.750Z,9.27
2023-08-17T15:38:55.200Z,10.27
2023-08-17T15:41:59.494Z,9.00
2023-08-17T15:45:02.515Z,9.00
2023-08-17T15:48:05.619Z,9.32
2023-08-17T15:51:08.571Z,9.05
2023-08-17T15:54:14.382Z,9.60
2023-08-17T15:57:19.695Z,8.60
2023-08-17T16:00:23.714Z,8.30
2023-08-17T16:03:27.313Z,8.30
2023-08-17T16:06:30.821Z,8.50
2023-08-17T16:09:33.874Z,8.82
2023-08-17T16:12:42.924Z,9.20
2023-08-17T16:15:53.154Z,8.13
2023-08-17T16:18:56.283Z,8.55
2023-08-17T16:21:59.353Z,8.50
2023-08-17T16:25:02.968Z,8.45
2023-08-17T16:28:08.963Z,7.93
2023-08-17T16:31:14.160Z,8.48
2023-08-17T16:34:19.913Z,9.20
2023-08-17T16:37:23.041Z,8.50
2023-08-17T16:40:37.872Z,9.52
2023-08-17T16:43:42.074Z,10.00
2023-08-17T16:46:45.900Z,8.90
2023-08-17T16:49:48.840Z,9.70
2023-08-17T16:52:51.822Z,9.15
2023-08-17T16:55:55.837Z,9.43
2023-08-17T16:59:02.021Z,10.20
2023-08-17T17:02:07.015Z,10.48
2023-08-17T17:05:10.418Z,10.68
2023-08-17T17:08:13.371Z,9.57
2023-08-17T17:11:16.340Z,9.57
2023-08-17T17:14:19.563Z,9.73
2023-08-17T17:17:22.642Z,8.98
2023-08-17T17:20:25.718Z,9.45
2023-08-17T17:23:28.716Z,10.00
2023-08-17T17:26:31.603Z,9.48
2023-08-17T17:29:35.451Z,9.90
2023-08-17T17:32:38.526Z,9.65
2023-08-17T17:35:42.418Z,9.80
2023-08-17T17:38:46.083Z,9.65
2023-08-17T17:41:49.251Z,9.57
2023-08-17T17:44:52.292Z,10.00
2023-08-17T17:47:55.948Z,18.83
2023-08-17T17:50:58.860Z,10.10
2023-08-17T17:54:01.778Z,9.38
2023-08-17T17:57:06.072Z,9.93
2023-08-17T18:00:11.399Z,9.50
2023-08-17T18:03:19.706Z,9.82
2023-08-17T18:06:23.715Z,9.68
2023-08-17T18:09:27.751Z,10.15
2023-08-17T18:12:31.677Z,9.50
2023-08-17T18:15:36.686Z,9.40
2023-08-17T18:18:40.000Z,9.70
2023-08-17T18:21:43.457Z,10.52
2023-08-17T18:24:46.724Z,10.00
2023-08-17T18:27:49.971Z,10.32
2023-08-17T18:30:53.720Z,9.97
2023-08-17T18:33:57.708Z,9.77
2023-08-17T18:37:03.865Z,10.27
2023-08-17T18:40:08.092Z,10.60
2023-08-17T18:43:12.061Z,10.85
2023-08-17T18:46:15.292Z,9.73
2023-08-17T18:49:18.304Z,10.85
2023-08-17T18:52:21.183Z,10.30
2023-08-17T18:55:24.841Z,10.43
2023-08-17T18:58:28.484Z,10.63
2023-08-17T19:01:32.658Z,10.43
2023-08-17T19:04:36.748Z,9.60
2023-08-17T19:07:40.676Z,10.40
2023-08-17T19:10:43.657Z,10.68
2023-08-17T19:13:46.564Z,10.77
2023-08-17T19:16:49.921Z,10.10
2023-08-17T19:19:53.326Z,13.48
2023-08-17T19:22:57.131Z,11.23
2023-08-17T19:26:00.713Z,10.80
2023-08-17T19:29:04.040Z,11.10
2023-08-17T19:32:07.686Z,10.80
2023-08-17T19:35:11.188Z,10.27
2023-08-17T19:38:15.416Z,11.13
2023-08-17T19:41:19.146Z,10.00
2023-08-17T19:44:22.628Z,10.57
2023-08-17T19:47:25.666Z,10.30
2023-08-17T19:50:29.796Z,10.52
2023-08-17T19:53:32.747Z,10.20
2023-08-17T19:56:36.549Z,11.00
2023-08-17T19:59:40.248Z,11.02
2023-08-17T20:02:44.201Z,10.20
2023-08-17T20:05:48.338Z,10.23
2023-08-17T20:08:51.624Z,10.48
2023-08-17T20:11:56.023Z,10.00
2023-08-17T20:15:00.182Z,9.93
2023-08-17T20:18:03.577Z,10.30
2023-08-17T20:21:07.460Z,9.98
2023-08-17T20:24:11.240Z,10.32
2023-08-17T20:27:15.198Z,10.63
2023-08-17T20:30:18.756Z,10.30
2023-08-17T20:33:23.704Z,10.00
2023-08-17T20:36:27.286Z,10.15
2023-08-17T20:39:31.175Z,10.45
2023-08-17T20:42:34.027Z,10.68
2023-08-17T20:45:41.598Z,10.70
2023-08-17T20:48:44.608Z,10.13
2023-08-17T20:51:49.370Z,9.70
2023-08-17T20:54:53.280Z,10.10
2023-08-17T20:57:58.810Z,10.32
2023-08-17T21:01:01.985Z,10.80
2023-08-17T21:04:05.921Z,10.90
2023-08-17T21:07:08.959Z,11.30
2023-08-17T21:10:12.750Z,12.00
2023-08-17T21:13:16.215Z,11.60
2023-08-17T21:16:19.116Z,11.38
2023-08-17T21:19:22.041Z,10.90
2023-08-17T21:22:26.534Z,11.15
2023-08-17T21:25:30.301Z,12.05
2023-08-17T21:28:33.242Z,10.50
2023-08-17T21:31:36.359Z,11.07
2023-08-17T21:34:39.885Z,11.67
2023-08-17T21:37:44.373Z,11.27
2023-08-17T21:40:47.500Z,11.18
2023-08-17T21:43:53.396Z,11.93
2023-08-17T21:46:57.865Z,11.23
2023-08-17T21:50:01.328Z,11.67
2023-08-17T21:53:04.418Z,11.25
2023-08-17T21:56:07.289Z,11.60
2023-08-17T21:59:10.292Z,12.20
2023-08-17T22:02:13.183Z,11.15
2023-08-17T22:05:16.173Z,11.70
2023-08-17T22:08:19.870Z,11.02
2023-08-17T22:11:23.480Z,11.32
2023-08-17T22:14:27.361Z,11.20
2023-08-17T22:17:31.253Z,10.90
2023-08-17T22:20:36.027Z,10.97
2023-08-17T22:23:39.092Z,11.25
2023-08-17T22:26:42.795Z,10.85
2023-08-17T22:29:45.803Z,11.60
2023-08-17T22:32:49.369Z,12.30
2023-08-17T22:35:52.871Z,11.13
2023-08-17T22:38:55.766Z,11.63
2023-08-17T22:41:58.890Z,11.60
2023-08-17T22:45:01.663Z,11.07
2023-08-17T22:48:05.674Z,11.40
2023-08-17T22:51:10.455Z,11.27
2023-08-17T22:54:14.086Z,11.80
2023-08-17T22:57:17.387Z,11.65
2023-08-17T23:00:20.681Z,10.95
2023-08-17T23:03:23.791Z,10.93
2023-08-17T23:06:27.534Z,10.33
2023-08-17T23:09:30.330Z,10.80
2023-08-17T23:12:33.860Z,11.00
2023-08-17T23:15:36.645Z,9.93
2023-08-17T23:18:39.579Z,10.98
2023-08-17T23:21:42.428Z,11.33
2023-08-17T23:24:46.088Z,11.27
2023-08-17T23:27:48.942Z,10.70
2023-08-17T23:30:52.219Z,11.48
2023-08-17T23:33:55.092Z,11.90
2023-08-17T23:36:58.843Z,10.97
2023-08-17T23:40:01.772Z,11.68
2023-08-17T23:43:05.451Z,11.80
2023-08-17T23:46:09.478Z,11.10
2023-08-17T23:49:12.783Z,11.52
2023-08-17T23:52:15.667Z,11.20
2023-08-17T23:55:19.599Z,11.23
2023-08-17T23:58:23.767Z,11.80
